Time;durP1;ratioP1;P1;durP2;ratioP2;P2;SDS_P1;SDS_P2;PMS_P1;PMS_P2;Temp;Humidity;BMP_temperature;BMP_pressure;BME280_temperature;BME280_humidity;BME280_pressure;Samples;Min_cycle;Max_cycle;Signal;HPM_P1;HPM_P2
2021/07/15 00:01:09;;;;;;;12.55;9.73;;;;;;;20.79;70.31;96453.81;5034573;28;20380;-62
2021/07/15 00:03:34;;;;;;;17.70;11.82;;;;;;;20.76;70.67;96448.75;5034427;28;20018;-63
2021/07/15 00:06:01;;;;;;;13.73;9.77;;;;;;;20.73;71.13;96452.50;5044660;28;20043;-62
2021/07/15 00:08:27;;;;;;;11.63;10.35;;;;;;;20.72;71.09;96448.16;5054027;28;20032;-62
2021/07/15 00:11:00;;;;;;;13.15;10.10;;;;;;;20.71;70.49;96447.31;5053862;28;20025;-62
2021/07/15 00:13:27;;;;;;;15.85;11.18;;;;;;;20.71;70.84;96449.16;5053733;28;20028;-61
2021/07/15 00:15:55;;;;;;;13.25;10.70;;;;;;;20.68;70.87;96452.88;5051696;28;20120;-61
2021/07/15 00:18:31;;;;;;;12.15;9.13;;;;;;;20.57;70.13;96447.59;5053669;28;20390;-63
2021/07/15 00:20:59;;;;;;;16.42;11.10;;;;;;;20.52;70.62;96452.41;5053788;28;20036;-61
2021/07/15 00:23:26;;;;;;;14.60;10.43;;;;;;;20.39;71.56;96455.22;5053682;28;20108;-62
2021/07/15 00:25:51;;;;;;;12.50;10.18;;;;;;;20.19;71.89;96458.50;5052196;28;20027;-61
2021/07/15 00:28:18;;;;;;;13.88;10.27;;;;;;;20.15;71.61;96453.53;5033047;28;20030;-61
2021/07/15 00:30:45;;;;;;;12.75;10.18;;;;;;;20.16;71.16;96453.41;5033829;28;20021;-62
2021/07/15 00:33:10;;;;;;;13.18;10.10;;;;;;;20.17;71.25;96451.63;5033885;28;20044;-61
2021/07/15 00:35:37;;;;;;;16.50;10.75;;;;;;;20.12;70.80;96456.44;5045717;28;20123;-61
2021/07/15 00:38:04;;;;;;;13.52;9.50;;;;;;;20.08;71.03;96455.84;5053199;28;20151;-62
2021/07/15 00:40:31;;;;;;;12.05;9.80;;;;;;;20.13;70.85;96458.13;5053520;28;20021;-62
2021/07/15 00:42:57;;;;;;;11.55;10.10;;;;;;;20.14;70.89;96455.34;5053673;28;20021;-62
2021/07/15 00:45:23;;;;;;;14.77;10.82;;;;;;;20.13;70.79;96458.13;5051475;28;20028;-61
2021/07/15 00:47:49;;;;;;;12.05;9.60;;;;;;;20.11;70.17;96452.94;5053391;28;20017;-62
2021/07/15 00:50:17;;;;;;;11.77;9.25;;;;;;;20.02;71.20;96449.19;5052944;28;20044;-61
2021/07/15 00:52:44;;;;;;;11.82;9.50;;;;;;;20.02;70.72;96435.91;5053225;28;20466;-62
2021/07/15 00:55:17;;;;;;;15.48;11.18;;;;;;;19.98;71.66;96436.25;5051237;28;20021;-63
2021/07/15 00:57:44;;;;;;;12.30;9.75;;;;;;;20.00;71.03;96435.16;5051944;28;20120;-62
2021/07/15 01:00:11;;;;;;;10.95;9.10;;;;;;;20.01;70.69;96436.88;5052986;28;20028;-62
2021/07/15 01:02:37;;;;;;;12.57;9.68;;;;;;;20.02;70.34;96429.78;5053076;28;20109;-62
2021/07/15 01:05:11;;;;;;;15.02;10.45;;;;;;;19.99;69.79;96428.19;5050808;28;20112;-62
2021/07/15 01:07:37;;;;;;;18.25;11.90;;;;;;;19.92;70.09;96433.09;5053038;28;20113;-61
2021/07/15 01:10:06;;;;;;;10.95;9.32;;;;;;;19.87;69.87;96429.13;5053215;28;20044;-61
2021/07/15 01:12:43;;;;;;;12.23;9.88;;;;;;;19.88;69.75;96425.50;5053138;28;20049;-62
2021/07/15 01:15:13;;;;;;;12.68;9.48;;;;;;;19.85;70.23;96426.59;5051113;28;20053;-62
2021/07/15 01:17:55;;;;;;;15.77;10.45;;;;;;;19.85;70.39;96429.25;5053025;28;20037;-63
2021/07/15 01:20:42;;;;;;;18.70;9.02;;;;;;;19.88;69.87;96433.47;5052927;28;20402;-61
2021/07/15 01:23:15;;;;;;;10.98;8.68;;;;;;;19.81;69.68;96431.28;5052817;28;20025;-62
2021/07/15 01:25:55;;;;;;;12.45;8.50;;;;;;;19.76;69.40;96424.63;5050973;28;20029;-62
2021/07/15 01:28:33;;;;;;;14.48;11.18;;;;;;;19.68;70.31;96423.44;5052817;28;20083;-62
2021/07/15 01:31:03;;;;;;;12.23;8.65;;;;;;;19.66;70.40;96419.22;5052674;28;20033;-62
2021/07/15 01:33:33;;;;;;;18.45;10.73;;;;;;;19.66;71.07;96413.91;5052730;28;20037;-62
2021/07/15 01:36:09;;;;;;;14.52;10.38;;;;;;;19.64;70.41;96408.72;5050795;28;20112;-62
2021/07/15 01:38:42;;;;;;;10.13;8.95;;;;;;;19.62;70.18;96415.94;5052386;28;20118;-62
2021/07/15 01:41:10;;;;;;;17.50;9.10;;;;;;;19.63;69.98;96417.63;5055616;28;20036;-62
2021/07/15 01:43:42;;;;;;;16.13;9.00;;;;;;;19.60;70.43;96423.19;5056523;28;20510;-62
2021/07/15 01:46:10;;;;;;;15.25;9.88;;;;;;;19.61;70.15;96424.00;5054801;28;20493;-62
2021/07/15 01:48:37;;;;;;;17.70;9.55;;;;;;;19.52;69.66;96425.56;5056386;28;20055;-61
2021/07/15 01:51:03;;;;;;;11.95;8.88;;;;;;;19.51;69.55;96422.06;5056092;28;20045;-62
2021/07/15 01:53:29;;;;;;;10.15;9.07;;;;;;;19.44;70.63;96421.69;5056533;28;20108;-61
2021/07/15 01:55:57;;;;;;;13.00;9.27;;;;;;;19.37;70.33;96424.91;5056372;28;20029;-62
2021/07/15 01:58:25;;;;;;;14.35;11.07;;;;;;;19.34;71.43;96426.00;5054174;28;20383;-62
2021/07/15 02:00:51;;;;;;;11.98;9.50;;;;;;;19.34;71.79;96422.50;5056215;28;20047;-62
2021/07/15 02:03:18;;;;;;;11.93;9.50;;;;;;;19.29;71.21;96418.41;5056285;28;20095;-62
2021/07/15 02:05:45;;;;;;;12.25;9.60;;;;;;;19.31;71.54;96421.78;5056077;28;20060;-61
2021/07/15 02:08:12;;;;;;;11.57;10.20;;;;;;;19.31;72.07;96419.13;5054252;28;20057;-61
2021/07/15 02:10:37;;;;;;;11.40;10.15;;;;;;;19.36;71.32;96421.44;5054925;28;20013;-62
2021/07/15 02:13:07;;;;;;;14.63;9.35;;;;;;;19.32;71.04;96410.22;5055819;28;20025;-61
2021/07/15 02:15:35;;;;;;;14.30;10.07;;;;;;;19.29;70.71;96415.75;5055800;28;20032;-62
2021/07/15 02:18:02;;;;;;;13.90;10.48;;;;;;;19.30;70.64;96416.59;5054099;28;20064;-62
2021/07/15 02:20:29;;;;;;;11.05;9.18;;;;;;;19.24;70.59;96412.63;5055900;28;20024;-62
2021/07/15 02:22:56;;;;;;;14.77;11.02;;;;;;;19.24;70.51;96411.75;5055835;28;20021;-62
2021/07/15 02:25:23;;;;;;;12.93;9.25;;;;;;;19.14;70.75;96398.38;5055705;28;20029;-63
2021/07/15 02:27:51;;;;;;;17.52;10.52;;;;;;;19.13;70.80;96409.91;5055647;28;20028;-62
2021/07/15 02:30:18;;;;;;;15.18;10.63;;;;;;;19.13;71.74;96417.84;5040438;28;20037;-63
2021/07/15 02:33:02;;;;;;;12.27;10.20;;;;;;;19.13;71.63;96412.56;5035660;28;20049;-62
2021/07/15 02:35:34;;;;;;;12.98;10.52;;;;;;;19.13;71.17;96413.41;5035582;28;20487;-61
2021/07/15 02:38:05;;;;;;;11.70;10.50;;;;;;;19.13;70.92;96410.75;5034442;28;20056;-63
2021/07/15 02:40:30;;;;;;;15.52;11.27;;;;;;;19.13;71.23;96412.56;5036565;28;20029;-62
2021/07/15 02:42:57;;;;;;;13.35;9.27;;;;;;;19.12;71.37;96410.88;5035333;28;20039;-61
2021/07/15 02:45:23;;;;;;;14.13;9.43;;;;;;;19.12;70.81;96410.88;5035338;28;20032;-62
2021/07/15 02:47:49;;;;;;;12.68;9.23;;;;;;;19.12;70.83;96406.44;5035331;28;20029;-62
2021/07/15 02:50:18;;;;;;;11.02;8.43;;;;;;;19.11;70.10;96406.53;5036112;28;20045;-62
2021/07/15 02:52:44;;;;;;;16.50;8.90;;;;;;;19.03;71.34;96415.84;5034353;28;20383;-62
2021/07/15 02:55:11;;;;;;;10.27;9.18;;;;;;;19.00;71.06;96413.47;5035109;28;20033;-61
2021/07/15 02:57:43;;;;;;;13.32;10.38;;;;;;;19.02;70.79;96419.47;5035250;28;20416;-63
2021/07/15 03:00:12;;;;;;;11.02;8.68;;;;;;;19.06;71.06;96410.31;5035068;28;20037;-63
2021/07/15 03:02:53;;;;;;;10.68;9.40;;;;;;;19.10;70.61;96416.28;5035462;28;20451;-63
2021/07/15 03:05:24;;;;;;;16.00;9.73;;;;;;;19.13;70.44;96415.22;5035057;28;20517;-63
2021/07/15 03:07:56;;;;;;;11.95;8.68;;;;;;;19.09;70.33;96417.25;5036071;28;20053;-62
2021/07/15 03:10:22;;;;;;;18.30;9.82;;;;;;;19.08;70.38;96415.56;5034978;28;20422;-63
2021/07/15 03:12:49;;;;;;;11.43;9.23;;;;;;;19.14;70.94;96419.56;5034540;28;20029;-61
2021/07/15 03:15:14;;;;;;;12.80;10.27;;;;;;;19.20;70.68;96413.78;5038687;28;20048;-61
2021/07/15 03:17:45;;;;;;;14.50;9.50;;;;;;;19.24;71.04;96419.72;5054688;28;20474;-59
2021/07/15 03:20:31;;;;;;;;;;;;;;;19.32;71.43;96412.00;5053421;28;20425;-60
2021/07/15 03:23:01;;;;;;;16.45;10.30;;;;;;;19.35;71.23;96418.91;5048451;28;19925;-61
2021/07/15 03:25:28;;;;;;;11.27;9.88;;;;;;;19.40;71.32;96411.44;5036824;28;20104;-64
2021/07/15 03:27:56;;;;;;;10.18;9.02;;;;;;;19.43;71.05;96409.41;5040980;28;20033;-65
2021/07/15 03:30:25;;;;;;;12.15;9.23;;;;;;;19.47;70.80;96414.47;5046995;28;20025;-64
2021/07/15 03:32:52;;;;;;;12.40;9.68;;;;;;;19.50;70.72;96412.41;5042931;28;20080;-64
2021/07/15 03:35:18;;;;;;;10.15;9.05;;;;;;;19.50;70.78;96416.91;5034483;28;20030;-65
2021/07/15 03:37:46;;;;;;;13.52;11.65;;;;;;;19.55;71.20;96412.94;5034388;28;20022;-64
2021/07/15 03:40:15;;;;;;;10.27;8.43;;;;;;;19.66;71.37;96411.25;5034367;28;20019;-64
2021/07/15 03:42:41;;;;;;;15.27;8.43;;;;;;;19.87;70.39;96415.84;5034318;28;20413;-65
2021/07/15 03:45:09;;;;;;;11.30;8.82;;;;;;;20.15;69.86;96414.56;5034443;28;20032;-65
2021/07/15 03:47:38;;;;;;;14.13;9.00;;;;;;;20.40;69.14;96411.75;5034241;28;20055;-64
2021/07/15 03:50:05;;;;;;;10.10;7.90;;;;;;;20.74;68.79;96413.50;5033960;28;20038;-64
2021/07/15 03:52:31;;;;;;;9.10;8.07;;;;;;;21.07;67.15;96407.25;5034248;28;20383;-64
2021/07/15 03:54:59;;;;;;;11.18;7.72;;;;;;;21.45;66.22;96415.66;5034106;28;20017;-64
2021/07/15 03:57:26;;;;;;;9.50;7.63;;;;;;;21.80;65.44;96412.78;5034200;28;20054;-64
2021/07/15 03:59:54;;;;;;;13.10;7.57;;;;;;;22.17;64.08;96411.41;5034006;28;20537;-64
2021/07/15 04:02:23;;;;;;;9.35;7.43;;;;;;;22.56;63.23;96408.88;5033825;28;20033;-64
2021/07/15 04:04:53;;;;;;;8.68;6.72;;;;;;;22.95;62.22;96412.59;5033977;28;20041;-65
2021/07/15 04:07:20;;;;;;;9.43;6.68;;;;;;;23.28;61.80;96406.97;5033964;28;20403;-64
2021/07/15 04:09:48;;;;;;;11.77;6.70;;;;;;;23.57;61.38;96403.47;5033881;28;20029;-64
2021/07/15 04:12:20;;;;;;;9.05;7.75;;;;;;;23.94;59.74;96404.50;5033690;28;20032;-64
2021/07/15 04:15:12;;;;;;;10.90;6.60;;;;;;;24.28;59.65;96395.94;5033741;28;20033;-64
2021/07/15 04:18:00;;;;;;;7.72;6.32;;;;;;;24.66;58.88;96403.91;5033455;28;20564;-64
2021/07/15 04:20:27;;;;;;;7.03;6.20;;;;;;;24.99;57.27;96401.56;5033784;28;20029;-64
2021/07/15 04:22:56;;;;;;;9.85;6.25;;;;;;;25.25;57.28;96405.28;5033742;28;20032;-64
2021/07/15 04:25:24;;;;;;;10.18;6.03;;;;;;;25.55;55.69;96403.19;5033574;28;20101;-64
2021/07/15 04:27:52;;;;;;;9.32;6.60;;;;;;;25.82;56.15;96406.75;5033463;28;20017;-64
2021/07/15 04:30:19;;;;;;;8.68;6.88;;;;;;;26.06;55.96;96399.00;5033477;28;20028;-64
2021/07/15 04:32:58;;;;;;;8.73;6.20;;;;;;;26.34;55.07;96401.50;5033315;28;20049;-64
2021/07/15 04:35:25;;;;;;;8.20;7.15;;;;;;;26.63;54.54;96408.28;5033424;28;20396;-64
2021/07/15 04:37:52;;;;;;;7.55;6.00;;;;;;;26.91;54.22;96412.56;5033408;28;20045;-64
2021/07/15 04:40:24;;;;;;;9.40;7.40;;;;;;;27.21;53.74;96412.97;5033342;28;20036;-64
2021/07/15 04:42:53;;;;;;;8.40;7.50;;;;;;;27.49;52.75;96413.47;5033370;28;20399;-65
2021/07/15 04:45:25;;;;;;;9.13;7.28;;;;;;;27.71;52.46;96412.97;5033282;28;20029;-64
2021/07/15 04:47:51;;;;;;;9.63;7.53;;;;;;;27.94;52.36;96407.72;5033279;28;20035;-64
2021/07/15 04:50:18;;;;;;;10.48;6.55;;;;;;;28.19;51.97;96415.72;5032865;28;20073;-64
2021/07/15 04:52:48;;;;;;;8.27;7.05;;;;;;;28.36;51.66;96419.19;5033214;28;20053;-64
2021/07/15 04:55:16;;;;;;;10.48;7.45;;;;;;;28.63;51.50;96417.06;5033179;28;20040;-64
2021/07/15 04:57:43;;;;;;;9.60;6.97;;;;;;;28.93;51.15;96412.88;5033219;28;20479;-64
2021/07/15 05:00:11;;;;;;;15.35;8.50;;;;;;;29.32;50.35;96425.41;5033134;28;20044;-64
2021/07/15 05:02:38;;;;;;;11.75;7.97;;;;;;;29.58;50.12;96421.50;5033124;28;20052;-64
2021/07/15 05:05:10;;;;;;;11.18;8.15;;;;;;;29.84;49.82;96425.66;5033113;28;20029;-64
2021/07/15 05:07:36;;;;;;;10.18;7.78;;;;;;;30.10;49.46;96421.66;5033035;28;20018;-64
2021/07/15 05:10:10;;;;;;;13.85;8.43;;;;;;;30.34;48.35;96422.44;5033077;28;20029;-64
2021/07/15 05:12:37;;;;;;;11.18;8.18;;;;;;;30.49;48.23;96419.72;5033124;28;20117;-64
2021/07/15 05:15:08;;;;;;;9.02;8.05;;;;;;;30.67;48.68;96418.47;5034105;28;20021;-64
2021/07/15 05:17:34;;;;;;;10.50;7.82;;;;;;;30.88;48.64;96420.44;5037013;28;20483;-64
2021/07/15 05:20:00;;;;;;;11.50;8.68;;;;;;;31.02;47.21;96420.56;5037036;28;20034;-64
2021/07/15 05:22:26;;;;;;;14.10;8.30;;;;;;;31.08;47.62;96418.97;5037074;28;20026;-64
2021/07/15 05:24:51;;;;;;;11.02;8.10;;;;;;;31.23;47.29;96421.59;5036950;28;20471;-64
2021/07/15 05:27:17;;;;;;;9.57;7.68;;;;;;;31.44;47.32;96419.94;5036879;28;20028;-64
2021/07/15 05:29:42;;;;;;;8.98;8.07;;;;;;;31.64;47.20;96414.72;5036798;28;20018;-64
2021/07/15 05:32:08;;;;;;;11.63;7.80;;;;;;;31.78;47.02;96415.66;5036852;28;20460;-64
2021/07/15 05:34:34;;;;;;;11.48;7.18;;;;;;;31.94;47.58;96419.97;5036759;28;20029;-64
2021/07/15 05:37:01;;;;;;;13.73;7.63;;;;;;;32.11;46.33;96414.25;5036820;28;20065;-64
2021/07/15 05:39:27;;;;;;;10.18;7.90;;;;;;;32.34;45.99;96415.81;5036566;28;20030;-64
2021/07/15 05:41:53;;;;;;;11.10;7.70;;;;;;;32.51;45.75;96410.94;5036537;28;20083;-64
2021/07/15 05:44:19;;;;;;;11.60;7.63;;;;;;;32.50;45.23;96415.50;5036727;28;20039;-64
2021/07/15 05:46:45;;;;;;;12.35;7.75;;;;;;;32.68;45.23;96411.41;5036542;28;20025;-64
2021/07/15 05:49:10;;;;;;;12.45;7.22;;;;;;;32.92;44.65;96411.09;5036581;28;20021;-64
2021/07/15 05:51:36;;;;;;;7.80;6.97;;;;;;;33.17;44.77;96414.09;5036250;28;20056;-64
2021/07/15 05:54:02;;;;;;;13.43;7.40;;;;;;;33.36;42.67;96411.59;5036417;28;20472;-64
2021/07/15 05:56:27;;;;;;;13.25;7.50;;;;;;;33.51;43.16;96417.66;5036332;28;20030;-65
2021/07/15 05:58:53;;;;;;;13.77;8.20;;;;;;;33.69;42.34;96416.22;5036323;28;20486;-64
2021/07/15 06:01:19;;;;;;;14.77;7.55;;;;;;;33.76;42.42;96421.63;5036408;28;20116;-64
2021/07/15 06:03:46;;;;;;;12.40;6.95;;;;;;;33.90;41.91;96423.28;5036177;28;20037;-64
2021/07/15 06:06:12;;;;;;;9.65;7.32;;;;;;;33.91;41.51;96413.28;5036126;28;20018;-65
2021/07/15 06:08:37;;;;;;;10.82;6.78;;;;;;;33.88;41.20;96419.09;5036107;28;20049;-64
2021/07/15 06:11:03;;;;;;;13.95;6.93;;;;;;;34.01;40.28;96415.56;5036026;28;20025;-65
2021/07/15 06:13:29;;;;;;;12.93;6.93;;;;;;;34.12;40.11;96411.34;5036069;28;20053;-65
2021/07/15 06:15:54;;;;;;;10.88;6.65;;;;;;;34.27;39.55;96414.69;5035956;28;20112;-64
2021/07/15 06:18:20;;;;;;;9.18;5.50;;;;;;;34.23;37.41;96405.31;5036022;28;20031;-64
2021/07/15 06:20:46;;;;;;;10.38;5.90;;;;;;;34.32;38.28;96405.06;5036000;28;20476;-64
2021/07/15 06:23:12;;;;;;;9.45;5.88;;;;;;;34.32;36.71;96403.19;5036079;28;20021;-64
2021/07/15 06:25:38;;;;;;;10.90;5.95;;;;;;;34.51;37.02;96409.59;5035469;28;20070;-64
2021/07/15 06:28:04;;;;;;;10.82;4.93;;;;;;;34.77;36.41;96413.28;5034866;28;20053;-65
2021/07/15 06:30:30;;;;;;;6.22;4.40;;;;;;;35.00;32.13;96421.94;5035646;28;20432;-65
2021/07/15 06:32:57;;;;;;;8.98;5.28;;;;;;;35.24;33.68;96416.81;5035728;28;20160;-65
2021/07/15 06:35:23;;;;;;;10.02;4.72;;;;;;;35.31;35.16;96414.03;5035578;28;20476;-65
2021/07/15 06:37:51;;;;;;;7.78;5.30;;;;;;;35.35;34.62;96412.53;5035646;28;20029;-65
2021/07/15 06:40:18;;;;;;;8.05;4.63;;;;;;;35.50;33.14;96415.78;5035511;28;20029;-65
2021/07/15 06:42:44;;;;;;;8.52;4.45;;;;;;;35.56;35.07;96414.03;5035422;28;20025;-65
2021/07/15 06:45:11;;;;;;;13.35;5.35;;;;;;;35.62;35.39;96405.00;5035497;28;20041;-65
2021/07/15 06:47:37;;;;;;;9.15;5.50;;;;;;;35.23;33.09;96410.53;5035497;28;20034;-65
2021/07/15 06:50:08;;;;;;;14.55;5.68;;;;;;;35.13;32.16;96402.84;5035346;28;20017;-65
2021/07/15 06:52:34;;;;;;;8.40;5.53;;;;;;;35.40;32.73;96399.94;5035367;28;20030;-65
2021/07/15 06:55:02;;;;;;;14.02;6.00;;;;;;;35.63;32.39;96400.38;5035252;28;20021;-65
2021/07/15 06:57:30;;;;;;;12.25;5.65;;;;;;;35.72;31.53;96392.81;5035255;28;20036;-65
2021/07/15 06:59:56;;;;;;;14.13;5.55;;;;;;;35.78;32.85;96395.47;5035360;28;20026;-65
2021/07/15 07:02:23;;;;;;;12.73;5.70;;;;;;;35.69;33.89;96393.28;5035240;28;20096;-65
2021/07/15 07:04:48;;;;;;;13.18;5.07;;;;;;;35.15;29.92;96400.72;5035033;28;20056;-65
2021/07/15 07:07:14;;;;;;;14.88;5.85;;;;;;;34.88;30.02;96395.44;5035025;28;20475;-65
2021/07/15 07:09:39;;;;;;;10.45;5.47;;;;;;;34.70;33.02;96401.59;5035039;28;20494;-65
2021/07/15 07:12:06;;;;;;;12.40;5.32;;;;;;;34.97;32.87;96396.03;5035104;28;20031;-65
2021/07/15 07:14:32;;;;;;;11.32;4.85;;;;;;;35.17;31.09;96397.78;5034915;28;20109;-65
2021/07/15 07:16:57;;;;;;;13.38;5.40;;;;;;;35.31;30.56;96401.28;5034982;28;20109;-65
2021/07/15 07:19:23;;;;;;;10.93;6.60;;;;;;;35.39;29.35;96398.28;5034792;28;20076;-65
2021/07/15 07:21:48;;;;;;;10.52;6.30;;;;;;;34.45;29.38;96393.31;5034783;28;20071;-65
2021/07/15 07:24:14;;;;;;;10.18;5.85;;;;;;;33.82;31.53;96396.38;5034801;28;20029;-65
2021/07/15 07:26:39;;;;;;;10.00;5.97;;;;;;;33.27;31.85;96395.56;5034814;28;20013;-65
2021/07/15 07:29:06;;;;;;;11.13;5.78;;;;;;;33.28;31.42;96391.78;5034806;28;20025;-65
2021/07/15 07:31:33;;;;;;;13.13;5.65;;;;;;;33.73;34.02;96394.94;5034540;28;20097;-65
2021/07/15 07:33:58;;;;;;;6.32;4.57;;;;;;;33.55;30.31;96393.66;5034627;28;20483;-65
2021/07/15 07:36:25;;;;;;;8.77;3.90;;;;;;;33.18;28.63;96385.09;5034479;28;20026;-65
2021/07/15 07:38:50;;;;;;;5.78;4.97;;;;;;;33.33;30.22;96387.63;5034151;28;20030;-65
2021/07/15 07:41:16;;;;;;;8.70;5.28;;;;;;;33.38;30.52;96387.84;5034409;28;20033;-65
2021/07/15 07:43:42;;;;;;;12.48;5.28;;;;;;;33.15;31.53;96398.03;5034387;28;20029;-65
2021/07/15 07:46:08;;;;;;;9.35;5.55;;;;;;;33.05;32.96;96389.47;5034333;28;20601;-65
2021/07/15 07:48:33;;;;;;;14.00;6.47;;;;;;;33.27;31.69;96392.84;5034262;28;20056;-65
2021/07/15 07:51:00;;;;;;;16.75;6.63;;;;;;;33.45;30.78;96391.38;5034161;28;20099;-65
2021/07/15 07:53:27;;;;;;;16.25;6.15;;;;;;;33.40;31.44;96393.88;5034233;28;20433;-65
2021/07/15 07:55:53;;;;;;;9.77;6.07;;;;;;;33.45;32.54;96394.09;5033972;28;20029;-65
2021/07/15 07:58:23;;;;;;;8.82;5.38;;;;;;;33.50;31.44;96388.88;5034171;28;20507;-65
2021/07/15 08:00:50;;;;;;;11.43;4.68;;;;;;;33.67;32.18;96385.75;5034056;28;20080;-65
2021/07/15 08:03:17;;;;;;;10.98;5.22;;;;;;;33.66;28.75;96386.81;5034035;28;20036;-65
2021/07/15 08:05:45;;;;;;;10.45;4.80;;;;;;;33.48;29.80;96388.25;5033955;28;20030;-65
2021/07/15 08:08:11;;;;;;;7.18;4.80;;;;;;;33.71;30.59;96384.28;5033927;28;20091;-65
2021/07/15 08:10:37;;;;;;;6.55;4.00;;;;;;;34.10;32.55;96387.16;5033832;28;20033;-65
2021/07/15 08:13:03;;;;;;;10.02;4.38;;;;;;;34.47;28.16;96383.09;5033894;28;20033;-65
2021/07/15 08:15:28;;;;;;;7.93;3.72;;;;;;;34.44;26.59;96384.38;5033711;28;20018;-65
2021/07/15 08:17:54;;;;;;;7.38;4.22;;;;;;;34.37;28.30;96383.56;5033690;28;20024;-65
2021/07/15 08:20:20;;;;;;;7.30;3.30;;;;;;;34.07;27.01;96384.03;5033661;28;20618;-65
2021/07/15 08:22:46;;;;;;;5.90;3.45;;;;;;;33.82;28.94;96382.81;5033621;28;20022;-65
2021/07/15 08:25:13;;;;;;;6.75;3.47;;;;;;;34.13;28.82;96366.94;5033582;28;20040;-65
2021/07/15 08:27:39;;;;;;;7.50;4.15;;;;;;;34.25;25.67;96372.56;5033437;28;20120;-65
2021/07/15 08:30:08;;;;;;;9.00;3.08;;;;;;;33.73;26.36;96367.81;5033583;28;20096;-65
2021/07/15 08:32:33;;;;;;;13.70;3.67;;;;;;;33.71;29.42;96367.22;5033539;28;20475;-65
2021/07/15 08:34:59;;;;;;;5.40;3.10;;;;;;;33.67;27.69;96365.97;5033468;28;20034;-65
2021/07/15 08:37:25;;;;;;;9.50;3.33;;;;;;;33.95;28.69;96360.28;5033518;28;20033;-65
2021/07/15 08:39:50;;;;;;;7.60;2.95;;;;;;;34.16;25.14;96353.78;5033458;28;20037;-65
2021/07/15 08:42:18;;;;;;;8.82;3.45;;;;;;;33.91;25.45;96356.31;5033320;28;20071;-65
2021/07/15 08:44:44;;;;;;;10.85;3.05;;;;;;;34.09;27.99;96354.81;5033354;28;20483;-65
2021/07/15 08:47:13;;;;;;;7.03;3.13;;;;;;;34.33;27.70;96355.16;5033280;28;20055;-65
2021/07/15 08:49:39;;;;;;;6.22;3.45;;;;;;;34.49;29.09;96356.59;5032531;28;20148;-65
2021/07/15 08:52:05;;;;;;;14.32;3.20;;;;;;;34.41;26.20;96350.34;5033098;28;20136;-65
2021/07/15 08:54:48;;;;;;;5.88;3.08;;;;;;;33.99;26.13;96347.97;5033112;28;20037;-65
2021/07/15 08:57:14;;;;;;;6.03;3.08;;;;;;;33.76;26.33;96348.44;5033266;28;20388;-65
2021/07/15 08:59:40;;;;;;;11.40;3.55;;;;;;;33.80;27.41;96351.56;5033087;28;20021;-65
2021/07/15 09:02:06;;;;;;;7.70;3.10;;;;;;;33.70;26.94;96355.53;5033138;28;20028;-65
2021/07/15 09:04:32;;;;;;;6.45;3.15;;;;;;;33.94;28.13;96346.91;5033072;28;20101;-65
2021/07/15 09:06:57;;;;;;;11.55;3.20;;;;;;;34.10;28.02;96348.34;5033066;28;20030;-65
2021/07/15 09:09:24;;;;;;;7.07;3.20;;;;;;;34.29;26.71;96342.03;5033037;28;20022;-65
2021/07/15 09:11:50;;;;;;;7.25;3.50;;;;;;;34.35;26.11;96344.94;5033000;28;20100;-65
2021/07/15 09:14:18;;;;;;;5.38;3.30;;;;;;;33.71;25.97;96337.41;5033031;28;20104;-65
2021/07/15 09:16:50;;;;;;;4.65;3.03;;;;;;;33.68;26.00;96348.66;5033002;28;20029;-65
2021/07/15 09:19:17;;;;;;;14.35;3.33;;;;;;;33.67;28.44;96339.69;5032906;28;20068;-65
2021/07/15 09:21:44;;;;;;;9.50;3.30;;;;;;;33.84;27.61;96331.09;5032905;28;20021;-65
2021/07/15 09:24:37;;;;;;;6.10;3.30;;;;;;;33.95;28.72;96330.44;5032981;28;20034;-65
2021/07/15 09:27:29;;;;;;;10.25;3.50;;;;;;;34.13;27.35;96331.69;5031881;28;20048;-65
2021/07/15 09:30:15;;;;;;;6.03;3.50;;;;;;;34.43;28.95;96331.13;5031899;28;20037;-65
2021/07/15 09:33:02;;;;;;;7.20;3.67;;;;;;;34.59;24.92;96339.81;5031564;28;20491;-65
2021/07/15 09:35:30;;;;;;;5.82;3.17;;;;;;;34.06;24.95;96328.09;5032741;28;20025;-65
2021/07/15 09:38:06;;;;;;;4.65;3.00;;;;;;;33.84;26.82;96323.81;5032765;28;20022;-65
2021/07/15 09:40:43;;;;;;;7.90;3.35;;;;;;;33.96;27.76;96318.56;5032799;28;20018;-65
2021/07/15 09:43:20;;;;;;;8.95;4.47;;;;;;;33.87;26.16;96317.97;5032806;28;20080;-65
2021/07/15 09:45:49;;;;;;;7.50;3.55;;;;;;;33.64;25.93;96321.97;5032791;28;20040;-65
2021/07/15 09:48:19;;;;;;;5.75;3.88;;;;;;;33.37;26.09;96313.00;5031464;28;20017;-64
2021/07/15 09:50:47;;;;;;;8.48;3.97;;;;;;;33.30;25.02;96312.19;5032504;28;20045;-65
2021/07/15 09:53:40;;;;;;;6.22;3.67;;;;;;;33.22;26.12;96311.34;5032685;28;20108;-65
2021/07/15 09:56:08;;;;;;;8.63;4.03;;;;;;;33.50;29.82;96313.00;5032480;28;20044;-65
2021/07/15 09:58:36;;;;;;;6.55;3.40;;;;;;;33.67;27.54;96304.44;5032507;28;20022;-65
2021/07/15 10:01:11;;;;;;;5.78;3.38;;;;;;;33.85;27.68;96302.94;5033722;28;20483;-65
2021/07/15 10:03:39;;;;;;;5.38;3.47;;;;;;;34.08;27.04;96299.75;5036418;28;20041;-65
2021/07/15 10:06:06;;;;;;;6.03;3.10;;;;;;;34.37;26.85;96302.16;5036292;28;20079;-64
2021/07/15 10:08:35;;;;;;;5.50;3.28;;;;;;;34.04;27.64;96303.94;5036049;28;20523;-64
2021/07/15 10:11:28;;;;;;;10.55;3.10;;;;;;;33.77;25.65;96306.72;5036036;28;20479;-65
2021/07/15 10:14:10;;;;;;;11.18;2.97;;;;;;;33.75;25.69;96296.09;5036033;28;20037;-65
2021/07/15 10:16:38;;;;;;;4.35;2.40;;;;;;;33.80;27.46;96294.63;5036031;28;20377;-65
2021/07/15 10:19:09;;;;;;;7.18;2.97;;;;;;;33.93;27.58;96299.16;5035994;28;20028;-65
2021/07/15 10:21:36;;;;;;;4.75;2.78;;;;;;;34.17;27.43;96294.94;5036003;28;20045;-65
2021/07/15 10:24:21;;;;;;;4.05;2.65;;;;;;;34.26;26.52;96284.66;5035916;28;20468;-65
2021/07/15 10:26:49;;;;;;;9.27;3.25;;;;;;;34.34;27.18;96287.13;5035963;28;20032;-65
2021/07/15 10:29:19;;;;;;;4.55;2.90;;;;;;;34.18;25.20;96293.03;5035861;28;20079;-65
2021/07/15 10:31:45;;;;;;;9.75;2.92;;;;;;;34.12;27.89;96297.41;5035849;28;20499;-65
2021/07/15 10:34:12;;;;;;;9.07;3.42;;;;;;;34.00;28.23;96292.69;5035739;28;20029;-65
2021/07/15 10:36:39;;;;;;;8.75;2.92;;;;;;;34.18;27.03;96285.75;5035655;28;20038;-65
2021/07/15 10:39:10;;;;;;;7.82;3.10;;;;;;;34.12;25.13;96287.44;5035750;28;20025;-65
2021/07/15 10:41:37;;;;;;;4.90;3.05;;;;;;;34.09;25.49;96276.16;5035666;28;20046;-65
2021/07/15 10:44:03;;;;;;;6.05;3.22;;;;;;;34.12;28.25;96281.16;5035643;28;20013;-65
2021/07/15 10:46:30;;;;;;;10.25;3.30;;;;;;;34.21;29.06;96284.47;5035412;28;20022;-65
2021/07/15 10:48:55;;;;;;;5.43;3.10;;;;;;;34.20;28.79;96282.81;5035404;28;20051;-65
2021/07/15 10:51:21;;;;;;;6.50;3.42;;;;;;;34.21;26.25;96279.03;5035187;28;20054;-65
2021/07/15 10:53:47;;;;;;;7.90;3.58;;;;;;;34.13;28.44;96288.28;5035333;28;20075;-65
2021/07/15 10:56:20;;;;;;;7.93;3.92;;;;;;;34.05;28.54;96283.91;5035361;28;20025;-65
2021/07/15 10:58:47;;;;;;;6.95;3.90;;;;;;;34.07;28.47;96280.97;5035289;28;20029;-65
2021/07/15 11:01:35;;;;;;;9.13;3.75;;;;;;;34.20;28.54;96282.81;5035217;28;20040;-65
2021/07/15 11:04:17;;;;;;;10.95;3.40;;;;;;;34.18;26.11;96276.75;5035165;28;20041;-65
2021/07/15 11:06:44;;;;;;;10.23;3.92;;;;;;;34.10;25.89;96278.66;5035171;28;20022;-65
2021/07/15 11:09:24;;;;;;;6.10;4.47;;;;;;;34.12;26.02;96279.31;5034994;28;20018;-65
2021/07/15 11:11:51;;;;;;;8.15;4.07;;;;;;;34.02;27.47;96268.91;5034916;28;20494;-65
2021/07/15 11:14:39;;;;;;;10.32;3.55;;;;;;;33.85;28.94;96264.97;5034423;28;20029;-65
2021/07/15 11:17:27;;;;;;;4.43;3.55;;;;;;;33.72;27.81;96274.84;5034850;28;20034;-65
2021/07/15 11:20:17;;;;;;;4.63;3.80;;;;;;;33.67;28.06;96269.22;5034874;28;20025;-65
2021/07/15 11:22:51;;;;;;;8.40;4.03;;;;;;;33.64;29.13;96272.34;5034837;28;20029;-65
2021/07/15 11:25:28;;;;;;;5.60;4.03;;;;;;;33.65;28.48;96265.91;5034795;28;20104;-65
2021/07/15 11:28:23;;;;;;;5.03;3.80;;;;;;;33.55;28.41;96260.88;5034659;28;20033;-65
2021/07/15 11:30:54;;;;;;;11.00;4.18;;;;;;;33.62;28.90;96258.19;5030182;28;20037;-65
2021/07/15 11:33:22;;;;;;;6.35;3.97;;;;;;;33.64;26.61;96253.38;5034717;28;20038;-65
2021/07/15 11:36:07;;;;;;;8.30;4.63;;;;;;;33.72;28.02;96261.28;5034471;28;20040;-65